createdAt,value
2019-05-20T00:03:47.888Z,27.67
2019-05-20T00:08:54.134Z,50.38
2019-05-20T00:14:00.341Z,21.72
2019-05-20T00:19:06.482Z,21.61
2019-05-20T00:24:12.827Z,21.66
2019-05-20T00:29:19.058Z,20.62
2019-05-20T00:34:34.717Z,19.61
2019-05-20T00:39:31.479Z,20.05
2019-05-20T00:44:37.619Z,21.53
2019-05-20T00:49:43.905Z,20.88
2019-05-20T00:54:50.088Z,19.40
2019-05-20T00:59:56.401Z,21.07
2019-05-20T01:05:02.547Z,16.68
2019-05-20T01:10:08.808Z,16.26
2019-05-20T01:15:15.024Z,15.14
2019-05-20T01:20:21.348Z,15.76
2019-05-20T01:25:27.603Z,14.95
2019-05-20T01:30:33.990Z,14.50
2019-05-20T01:35:40.293Z,14.91
2019-05-20T01:40:46.696Z,14.41
2019-05-20T01:45:54.407Z,14.51
2019-05-20T01:51:00.699Z,14.74
2019-05-20T01:56:06.794Z,14.45
2019-05-20T02:01:13.005Z,14.48
2019-05-20T02:06:19.180Z,14.50
2019-05-20T02:11:25.544Z,14.64
2019-05-20T02:16:31.793Z,15.30
2019-05-20T02:21:38.528Z,14.77
2019-05-20T02:26:44.700Z,15.88
2019-05-20T02:31:50.942Z,15.76
2019-05-20T02:36:57.260Z,15.52
2019-05-20T02:42:03.625Z,16.14
2019-05-20T02:47:09.696Z,17.37
2019-05-20T02:52:16.069Z,15.92
2019-05-20T02:57:22.221Z,15.38
2019-05-20T03:02:28.294Z,16.30
2019-05-20T03:07:34.359Z,16.26
2019-05-20T03:12:40.709Z,15.52
2019-05-20T03:17:46.866Z,15.66
2019-05-20T03:22:53.246Z,14.91
2019-05-20T03:27:59.513Z,14.18
2019-05-20T03:33:05.834Z,14.83
2019-05-20T03:38:12.010Z,13.63
2019-05-20T03:43:18.129Z,13.85
2019-05-20T03:48:24.325Z,13.75
2019-05-20T03:53:30.477Z,14.49
2019-05-20T03:58:36.682Z,14.24
2019-05-20T04:03:42.716Z,15.00
2019-05-20T04:08:49.010Z,14.47
2019-05-20T04:13:55.110Z,13.11
2019-05-20T04:19:01.230Z,12.33
2019-05-20T04:24:07.344Z,11.90
2019-05-20T04:29:13.443Z,11.00
2019-05-20T04:34:19.597Z,11.34
2019-05-20T04:39:25.656Z,10.91
2019-05-20T04:44:31.710Z,10.14
2019-05-20T04:49:37.805Z,10.59
2019-05-20T04:54:43.963Z,11.27
2019-05-20T04:59:50.012Z,11.08
2019-05-20T05:04:56.110Z,11.08
2019-05-20T05:10:02.180Z,10.68
2019-05-20T05:15:08.414Z,10.96
2019-05-20T05:20:17.851Z,14.03
2019-05-20T05:25:15.424Z,13.13
2019-05-20T05:30:21.951Z,13.31
2019-05-20T05:35:28.220Z,13.42
2019-05-20T05:40:34.492Z,13.63
2019-05-20T05:45:40.915Z,14.89
2019-05-20T05:50:47.153Z,13.11
2019-05-20T05:55:53.543Z,13.09
2019-05-20T06:00:59.969Z,13.27
2019-05-20T06:06:12.354Z,11.97
2019-05-20T06:11:09.600Z,11.74
2019-05-20T06:16:16.014Z,12.59
2019-05-20T06:21:22.473Z,17.41
2019-05-20T06:26:28.796Z,14.33
2019-05-20T06:31:35.104Z,12.63
2019-05-20T06:36:41.446Z,12.85
2019-05-20T06:41:48.713Z,11.75
2019-05-20T06:46:55.101Z,12.08
2019-05-20T06:52:01.477Z,11.79
2019-05-20T06:57:08.149Z,10.72
2019-05-20T07:02:14.571Z,9.63
2019-05-20T07:07:21.525Z,9.68
2019-05-20T07:12:40.667Z,9.43
2019-05-20T07:17:34.428Z,8.71
2019-05-20T07:22:55.325Z,8.12
2019-05-20T07:27:48.172Z,9.14
2019-05-20T07:32:54.540Z,9.40
2019-05-20T07:38:01.215Z,9.79
2019-05-20T07:43:07.561Z,9.80
2019-05-20T07:48:14.056Z,9.83
2019-05-20T07:53:20.309Z,10.33
2019-05-20T07:58:26.856Z,10.43
2019-05-20T08:03:33.234Z,10.00
2019-05-20T08:08:41.390Z,9.97
2019-05-20T08:13:47.662Z,9.68
2019-05-20T08:18:55.782Z,9.51
2019-05-20T08:24:02.365Z,9.65
2019-05-20T08:29:09.075Z,8.84
2019-05-20T08:34:15.553Z,8.50
2019-05-20T08:39:22.245Z,8.17
2019-05-20T08:44:28.752Z,8.32
2019-05-20T08:49:35.236Z,7.99
2019-05-20T08:54:41.863Z,7.53
2019-05-20T08:59:48.419Z,7.48
2019-05-20T09:04:54.865Z,7.46
2019-05-20T09:10:01.485Z,7.46
2019-05-20T09:15:07.865Z,7.50
2019-05-20T09:20:14.423Z,8.50
2019-05-20T09:25:20.604Z,8.67
2019-05-20T09:30:27.176Z,8.40
2019-05-20T09:35:33.433Z,7.70
2019-05-20T09:40:40.011Z,8.11
2019-05-20T09:45:46.367Z,7.61
2019-05-20T09:50:52.994Z,7.82
2019-05-20T09:55:59.347Z,7.65
2019-05-20T10:01:05.804Z,8.45
2019-05-20T10:06:12.071Z,8.62
2019-05-20T10:11:19.401Z,8.02
2019-05-20T10:16:25.907Z,7.96
2019-05-20T10:21:33.364Z,9.66
2019-05-20T10:26:39.948Z,8.93
2019-05-20T10:31:46.326Z,8.18
2019-05-20T10:36:52.454Z,8.37
2019-05-20T10:41:58.872Z,9.09
2019-05-20T10:47:05.184Z,9.97
2019-05-20T10:52:13.156Z,10.01
2019-05-20T10:57:19.530Z,11.68
2019-05-20T11:02:31.013Z,10.30
2019-05-20T11:07:27.476Z,10.60
2019-05-20T11:12:33.827Z,11.56
2019-05-20T11:17:40.135Z,10.62
2019-05-20T11:22:46.614Z,10.95
2019-05-20T11:27:52.930Z,11.71
2019-05-20T11:32:59.405Z,10.74
2019-05-20T11:38:05.636Z,11.49
2019-05-20T11:43:12.055Z,11.43
2019-05-20T11:48:18.304Z,11.90
2019-05-20T11:53:24.684Z,11.57
2019-05-20T11:58:31.128Z,11.88
2019-05-20T12:03:37.604Z,11.24
2019-05-20T12:08:43.907Z,13.01
2019-05-20T12:13:50.181Z,12.01
2019-05-20T12:18:56.748Z,10.83
2019-05-20T12:24:03.055Z,10.68
2019-05-20T12:29:09.613Z,10.41
2019-05-20T12:34:15.776Z,10.38
2019-05-20T12:39:21.969Z,10.65
2019-05-20T12:44:29.318Z,11.88
2019-05-20T12:49:35.666Z,10.28
2019-05-20T12:54:42.123Z,12.25
2019-05-20T12:59:48.666Z,12.99
2019-05-20T13:04:55.089Z,10.45
2019-05-20T13:10:02.977Z,11.42
2019-05-20T13:15:10.160Z,10.70
2019-05-20T13:20:16.451Z,9.73
2019-05-20T13:25:22.939Z,10.29
2019-05-20T13:30:29.156Z,11.05
2019-05-20T13:35:35.615Z,9.67
2019-05-20T13:40:46.565Z,10.52
2019-05-20T13:45:47.616Z,10.78
2019-05-20T13:50:44.736Z,11.09
2019-05-20T13:55:51.085Z,11.37
2019-05-20T14:00:57.417Z,11.66
2019-05-20T14:06:03.929Z,13.05
2019-05-20T14:11:12.127Z,12.03
2019-05-20T14:16:18.353Z,12.20
2019-05-20T14:21:25.343Z,12.26
2019-05-20T14:26:31.640Z,12.58
2019-05-20T14:31:37.865Z,13.17
2019-05-20T14:36:44.263Z,13.93
2019-05-20T14:41:50.838Z,12.18
2019-05-20T14:46:57.251Z,13.32
2019-05-20T14:52:03.496Z,13.22
2019-05-20T14:57:09.945Z,13.00
2019-05-20T15:02:16.302Z,12.88
2019-05-20T15:07:29.994Z,12.59
2019-05-20T15:12:27.215Z,13.34
2019-05-20T15:17:33.739Z,13.47
2019-05-20T15:22:39.987Z,12.43
2019-05-20T15:27:49.327Z,12.20
2019-05-20T15:32:56.351Z,12.90
2019-05-20T15:38:02.840Z,12.82
2019-05-20T15:43:09.124Z,13.27
2019-05-20T15:48:15.420Z,13.08
2019-05-20T15:53:21.754Z,16.60
2019-05-20T15:58:28.548Z,15.43
2019-05-20T16:03:34.845Z,16.29
2019-05-20T16:08:41.130Z,13.94
2019-05-20T16:13:47.535Z,13.05
2019-05-20T16:18:53.801Z,12.45
2019-05-20T16:24:00.065Z,11.70
2019-05-20T16:29:06.601Z,11.46
2019-05-20T16:34:13.334Z,11.85
2019-05-20T16:39:19.480Z,12.28
2019-05-20T16:44:29.011Z,11.35
2019-05-20T16:49:37.099Z,10.99
2019-05-20T16:54:45.050Z,12.02
2019-05-20T16:59:54.252Z,12.52
2019-05-20T17:05:00.874Z,11.25
2019-05-20T17:10:07.513Z,14.29
2019-05-20T17:15:14.297Z,12.64
2019-05-20T17:20:20.791Z,13.12
2019-05-20T17:25:28.764Z,11.65
2019-05-20T17:30:44.976Z,11.71
2019-05-20T17:35:42.530Z,10.28
2019-05-20T17:40:49.426Z,11.22
2019-05-20T17:45:55.582Z,10.57
2019-05-20T17:51:02.159Z,14.16
2019-05-20T17:56:08.799Z,11.14
2019-05-20T18:01:16.187Z,10.37
2019-05-20T18:06:23.226Z,14.68
2019-05-20T18:11:29.592Z,12.24
2019-05-20T18:16:37.944Z,9.79
2019-05-20T18:21:44.498Z,12.25
2019-05-20T18:26:55.222Z,10.39
2019-05-20T18:32:01.727Z,10.29
2019-05-20T18:36:58.008Z,11.62
2019-05-20T18:42:04.860Z,10.59
2019-05-20T18:47:11.352Z,10.23
2019-05-20T18:52:17.774Z,9.85
2019-05-20T18:57:23.947Z,10.41
2019-05-20T19:02:33.441Z,10.99
2019-05-20T19:07:39.930Z,11.61
2019-05-20T19:12:46.516Z,12.24
2019-05-20T19:17:53.239Z,12.92
2019-05-20T19:22:59.687Z,10.75
2019-05-20T19:28:06.643Z,11.42
2019-05-20T19:33:13.365Z,12.10
2019-05-20T19:38:22.355Z,11.24
2019-05-20T19:43:28.601Z,11.55
2019-05-20T19:48:35.320Z,11.36
2019-05-20T19:53:41.921Z,10.70
2019-05-20T19:58:49.017Z,11.13
2019-05-20T20:04:00.097Z,11.05
2019-05-20T20:08:56.404Z,10.89
2019-05-20T20:14:02.659Z,11.49
2019-05-20T20:19:09.482Z,10.58
2019-05-20T20:24:19.119Z,10.31
2019-05-20T20:29:25.486Z,8.93
2019-05-20T20:34:45.659Z,7.85
2019-05-20T20:39:40.101Z,8.21
2019-05-20T20:44:36.861Z,7.53
2019-05-20T20:49:44.031Z,7.42
2019-05-20T20:54:50.874Z,6.86
2019-05-20T20:59:57.212Z,5.86
2019-05-20T21:05:03.515Z,5.82
2019-05-20T21:10:09.861Z,5.18
2019-05-20T21:15:16.395Z,5.61
2019-05-20T21:20:22.825Z,5.96
2019-05-20T21:25:36.693Z,5.42
2019-05-20T21:30:33.032Z,5.41
2019-05-20T21:35:39.231Z,5.40
2019-05-20T21:40:45.470Z,6.13
2019-05-20T21:45:51.901Z,5.01
2019-05-20T21:51:03.166Z,5.27
2019-05-20T21:56:00.693Z,5.39
2019-05-20T22:01:07.157Z,5.19
2019-05-20T22:06:14.019Z,4.87
2019-05-20T22:11:20.292Z,4.99
2019-05-20T22:16:29.663Z,5.05
2019-05-20T22:21:43.445Z,5.08
2019-05-20T22:26:45.463Z,5.12
2019-05-20T22:31:41.792Z,4.65
2019-05-20T22:36:52.768Z,4.69
2019-05-20T22:41:52.758Z,4.74
2019-05-20T22:46:59.111Z,5.07
2019-05-20T22:52:05.940Z,5.37
2019-05-20T22:57:12.298Z,4.90
2019-05-20T23:02:18.513Z,5.12
2019-05-20T23:07:24.966Z,5.15
2019-05-20T23:12:31.444Z,5.77
2019-05-20T23:17:37.997Z,5.58
2019-05-20T23:22:44.231Z,5.47
2019-05-20T23:27:51.818Z,5.61
2019-05-20T23:32:58.360Z,5.56
2019-05-20T23:38:16.339Z,5.82
2019-05-20T23:43:15.825Z,5.53
2019-05-20T23:48:25.006Z,6.18
2019-05-20T23:53:31.095Z,5.45
2019-05-20T23:58:38.257Z,5.15
